Wicky — XPE4448 — position and weather

sailwx.info

Track history (hours):
 
Tides and Currents Weather Stations Pressure Air Temp Water Temp Dewpoint Dewpoint Depression Visibility Wind Speed Wind Dir Waves Ship Positions

Wicky

Last reported at 2017-Oct-16 13:59 UTC. Time now 2017-Dec-12 23:52 UTC.
Position N 39°12' E 009°08'.
Warning: this ship's position is 57 days out of date.

Length 11 m.

Type: Sailing vessel. MMSI: 219017258.

Date/timePositionNaut miles runAvg speedWind from/ knotsBaromVisibWave heightAir tempDewpointWater temp
2017-Oct-16 13:59N 39°12' E 009°08'1 1.7
2017-Oct-16 13:30N 39°12' E 009°07'1 2.6
2017-Oct-16 12:59N 39°11' E 009°08'2 4.4
2017-Oct-16 12:30N 39°10' E 009°10'3 6.0
2017-Oct-16 12:00N 39°10' E 009°14'1 0.0
2017-Oct-14 11:05N 39°10' E 009°15'1 3.4
2017-Oct-14 10:51N 39°11' E 009°14'1 3.1
2017-Oct-14 10:30N 39°11' E 009°13'2 3.1
2017-Oct-14 10:00N 39°11' E 009°11'1 2.8
2017-Oct-14 09:29N 39°11' E 009°10'3 5.2
2017-Oct-14 09:00N 39°12' E 009°07'  
2017-Oct-09 14:15N 39°13' E 009°07'0 0.0
2017-Oct-09 14:00N 39°13' E 009°07'0 0.0
2017-Oct-09 13:30N 39°13' E 009°07'0 0.0
2017-Oct-09 13:00N 39°13' E 009°07'0 0.0
2017-Oct-09 12:30N 39°13' E 009°07'0 0.0
2017-Oct-09 12:00N 39°13' E 009°07'2 4.8
2017-Oct-09 11:29N 39°10' E 009°06'3 6.1
2017-Oct-09 10:58N 39°07' E 009°05'9 1.7
2017-Oct-09 05:59N 38°59' E 009°01'0 0.0
2017-Oct-09 05:20N 38°59' E 009°01'0 0.0
2017-Oct-09 04:50N 38°59' E 009°01'0 0.0
2017-Oct-09 04:29N 38°59' E 009°01'0 0.0
2017-Oct-09 03:11N 38°59' E 009°01'0 0.0
2017-Oct-09 02:53N 38°59' E 009°01'0 0.0
2017-Oct-09 02:29N 38°59' E 009°01'0 0.0
2017-Oct-09 01:56N 38°59' E 009°01'0 0.0
2017-Oct-09 01:29N 38°59' E 009°01'0 0.0
2017-Oct-09 00:50N 38°59' E 009°01'0 0.0
2017-Oct-09 00:26N 38°59' E 009°01'0 0.0
2017-Oct-08 23:59N 38°59' E 009°01'0 0.0
2017-Oct-08 23:26N 38°59' E 009°01'0 0.0
2017-Oct-08 22:47N 38°59' E 009°01'0 0.0
2017-Oct-08 22:26N 38°59' E 009°01'0 0.0
2017-Oct-08 21:59N 38°59' E 009°01'0 0.0
2017-Oct-08 21:26N 38°59' E 009°01'0 0.0
2017-Oct-08 20:59N 38°59' E 009°01'0 0.0
2017-Oct-08 20:17N 38°59' E 009°01'0 0.0
2017-Oct-08 19:59N 38°59' E 009°01'0 0.0
2017-Oct-08 19:29N 38°59' E 009°01'0 0.0
2017-Oct-08 18:53N 38°59' E 009°01'0 0.0
2017-Oct-08 18:20N 38°59' E 009°01'0 0.0
2017-Oct-08 17:53N 38°59' E 009°01'  
Track history (hours):
 
Tides and Currents Weather Stations Pressure Air Temp Water Temp Dewpoint Dewpoint Depression Visibility Wind Speed Wind Dir Waves Ship Positions

Wicky

Last reported at 2017-Oct-16 13:59 UTC. Time now 2017-Dec-12 23:52 UTC.
Position N 39°12' E 009°08'.
Warning: this ship's position is 57 days out of date.

Length 11 m.

Type: Sailing vessel. MMSI: 219017258.

Date/timePositionNaut miles runAvg speedWind from/ knotsBaromVisibWave heightAir tempDewpointWater temp
2017-Oct-16 13:59N 39°12' E 009°08'1 1.7
2017-Oct-16 13:30N 39°12' E 009°07'1 2.6
2017-Oct-16 12:59N 39°11' E 009°08'2 4.4
2017-Oct-16 12:30N 39°10' E 009°10'3 6.0
2017-Oct-16 12:00N 39°10' E 009°14'1 0.0
2017-Oct-14 11:05N 39°10' E 009°15'1 3.4
2017-Oct-14 10:51N 39°11' E 009°14'1 3.1
2017-Oct-14 10:30N 39°11' E 009°13'2 3.1
2017-Oct-14 10:00N 39°11' E 009°11'1 2.8
2017-Oct-14 09:29N 39°11' E 009°10'3 5.2
2017-Oct-14 09:00N 39°12' E 009°07'  
2017-Oct-09 14:15N 39°13' E 009°07'0 0.0
2017-Oct-09 14:00N 39°13' E 009°07'0 0.0
2017-Oct-09 13:30N 39°13' E 009°07'0 0.0
2017-Oct-09 13:00N 39°13' E 009°07'0 0.0
2017-Oct-09 12:30N 39°13' E 009°07'0 0.0
2017-Oct-09 12:00N 39°13' E 009°07'2 4.8
2017-Oct-09 11:29N 39°10' E 009°06'3 6.1
2017-Oct-09 10:58N 39°07' E 009°05'9 1.7
2017-Oct-09 05:59N 38°59' E 009°01'0 0.0
2017-Oct-09 05:20N 38°59' E 009°01'0 0.0
2017-Oct-09 04:50N 38°59' E 009°01'0 0.0
2017-Oct-09 04:29N 38°59' E 009°01'0 0.0
2017-Oct-09 03:11N 38°59' E 009°01'0 0.0
2017-Oct-09 02:53N 38°59' E 009°01'0 0.0
2017-Oct-09 02:29N 38°59' E 009°01'0 0.0
2017-Oct-09 01:56N 38°59' E 009°01'0 0.0
2017-Oct-09 01:29N 38°59' E 009°01'0 0.0
2017-Oct-09 00:50N 38°59' E 009°01'0 0.0
2017-Oct-09 00:26N 38°59' E 009°01'0 0.0
2017-Oct-08 23:59N 38°59' E 009°01'0 0.0
2017-Oct-08 23:26N 38°59' E 009°01'0 0.0
2017-Oct-08 22:47N 38°59' E 009°01'0 0.0
2017-Oct-08 22:26N 38°59' E 009°01'0 0.0
2017-Oct-08 21:59N 38°59' E 009°01'0 0.0
2017-Oct-08 21:26N 38°59' E 009°01'0 0.0
2017-Oct-08 20:59N 38°59' E 009°01'0 0.0
2017-Oct-08 20:17N 38°59' E 009°01'0 0.0
2017-Oct-08 19:59N 38°59' E 009°01'0 0.0
2017-Oct-08 19:29N 38°59' E 009°01'0 0.0
2017-Oct-08 18:53N 38°59' E 009°01'0 0.0
2017-Oct-08 18:20N 38°59' E 009°01'0 0.0
2017-Oct-08 17:53N 38°59' E 009°01'  

Dump ship's entire track history